Awendaw, South Carolina
Current Conditions -  °F | °C
As of 3:15 PM on Sunday 21 Dec 2014 (Local Time) from KLRO Reporting Station
Overcast Overcast  
Wind Chill: 11°   Ceiling: 1700
Heat Index: 11°   Visibility: 10mi
Dew Point:   Wind: 0mph
Humidity: 71%   Direction: NA
Pressure: 30.15"   Gusts: NA
Location:  33.04°N, 79.61°W
Report Text: KLRO 212015Z AUTO 00000KT 10SM BKN017 OVC036 11/06 A3015 RMK AO2
Loading
Personal Weather Stations






























Interactive Weather Map New forecast layout! Learn more

10-Day Weather Forecast

Advertisements
Track Severe Weather on mobile